»·PEaware :: ABX360 KBOI-KSEA

ABX360 :: KBOI-KSEA

FLIGHT INFORMATION

Flight Status: Arrived
Operator:
Airborne Express
More flights by this operator :: More flights under this callsign
Pilot: Luc P. (3613)
Aircraft: BOEING 767-300
(B763)
More flights by this aircraft type
Origin: KBOI Boise Air Terminal/Gowen
United States
Destination: KSEA Seattle-Tacoma Intl
United States
More flights between these airports :: More routes between these airports
Route: +BOI3 OLAAH PREIS PDT CHINS4
File this flight plan on PilotEdge
Remarks: PBN / A1B1C1D1L1O1 DOF / 200512 REG / N372CM EET / KZSE0023 SEL / QRAH OPR / ABX PER / D RMK / TCAS)
Altitude:
(Current/Filed)
34,000ft
Speed:
(Current/Filed)
451kts
Departed: 12-May-20 08:32 AM
Arrived: 12-May-20 09:36 AM
Distance/Time
Traveled:
346nm/1:04
Distance/Time
To Go:
Arrived

Flight Plot

Page will automatically refresh every two minutes.


Map Options




Map Legend


Flown Route
Filed Route
Departure Airport
Arrival Airport
Navaid (VOR, NDB)
Fix

Horizontal Profiles

Position Reports

Time Latitude Longitude Heading Altitude Ground
Speed
12-May-20 08:01 43.566709 -116.243785 270 2831ft 0kts
12-May-20 08:02 43.566709 -116.243785 270 2831ft 0kts
12-May-20 08:03 43.566709 -116.243785 270 2831ft 0kts
12-May-20 08:04 43.566709 -116.243785 270 2831ft 0kts
12-May-20 08:05 43.566709 -116.243785 270 2831ft 0kts
12-May-20 08:06 43.566709 -116.243785 270 2831ft 0kts
12-May-20 08:07 43.566709 -116.243785 270 2831ft 0kts
12-May-20 08:08 43.566709 -116.243785 270 2831ft 0kts
12-May-20 08:09 43.566709 -116.243785 270 2831ft 0kts
12-May-20 08:10 43.566709 -116.243785 270 2831ft 0kts
12-May-20 08:11 43.566709 -116.243785 270 2831ft 0kts
12-May-20 08:12 43.566709 -116.243785 270 2831ft 0kts
12-May-20 08:13 43.566709 -116.243785 270 2831ft 0kts
12-May-20 08:14 43.566709 -116.243785 270 2831ft 0kts
12-May-20 08:15 43.566709 -116.243785 270 2831ft 0kts
12-May-20 08:16 43.566709 -116.243785 270 2831ft 0kts
12-May-20 08:17 43.566709 -116.243785 270 2831ft 0kts
12-May-20 08:18 43.566706 -116.243251 270 2831ft 2kts
12-May-20 08:19 43.566950 -116.242708 181 2832ft 0kts
12-May-20 08:20 43.566990 -116.242708 179 2832ft 0kts
12-May-20 08:21 43.566990 -116.242708 179 2832ft 0kts
12-May-20 08:22 43.566568 -116.242714 180 2831ft 5kts
12-May-20 08:23 43.565856 -116.240956 86 2833ft 6kts
12-May-20 08:24 43.566069 -116.237419 84 2838ft 11kts
12-May-20 08:25 43.565337 -116.232765 115 2845ft 14kts
12-May-20 08:26 43.563480 -116.227331 115 2855ft 17kts
12-May-20 08:27 43.562344 -116.223980 115 2858ft 6kts
12-May-20 08:28 43.561309 -116.220928 115 2861ft 12kts
12-May-20 08:29 43.559404 -116.215384 115 2865ft 19kts
12-May-20 08:30 43.558045 -116.210067 31 2870ft 10kts
12-May-20 08:31 43.562866 -116.221640 295 2860ft 124kts
12-May-20 08:32 43.580956 -116.281382 291 4665ft 184kts
12-May-20 08:33 43.606162 -116.355805 296 6118ft 242kts
12-May-20 08:34 43.668474 -116.408571 329 8581ft 276kts
12-May-20 08:35 43.740333 -116.457343 329 10780ft 311kts
12-May-20 08:36 43.825437 -116.514887 329 13025ft 350kts
12-May-20 08:37 43.916027 -116.576416 328 15414ft 370kts
12-May-20 08:38 44.008552 -116.639404 329 15993ft 368kts
12-May-20 08:39 44.100120 -116.701987 328 16946ft 373kts
12-May-20 08:40 44.186405 -116.786974 309 19770ft 379kts
12-May-20 08:41 44.263247 -116.892389 310 22417ft 393kts
12-May-20 08:42 44.343198 -117.002416 309 25020ft 408kts
12-May-20 08:43 44.425438 -117.116058 309 27705ft 422kts
12-May-20 08:44 44.511210 -117.235102 308 30158ft 436kts
12-May-20 08:45 44.598803 -117.357153 308 32806ft 434kts
12-May-20 08:46 44.685272 -117.478226 308 33837ft 430kts
12-May-20 08:47 44.771208 -117.599134 308 33841ft 431kts
12-May-20 08:48 44.856015 -117.718939 308 33848ft 431kts
12-May-20 08:49 44.941656 -117.840472 308 33848ft 432kts
12-May-20 08:50 45.027795 -117.963268 308 33847ft 435kts
12-May-20 08:51 45.113047 -118.085353 309 33834ft 438kts
12-May-20 08:52 45.199585 -118.209817 309 33832ft 439kts
12-May-20 08:53 45.286294 -118.335113 310 33832ft 440kts
12-May-20 08:54 45.372706 -118.460564 310 33832ft 441kts
12-May-20 08:55 45.459666 -118.587403 310 33831ft 442kts
12-May-20 08:56 45.545337 -118.712976 310 33820ft 441kts
12-May-20 08:57 45.631728 -118.840154 310 33800ft 442kts
12-May-20 08:59 45.716854 -118.969936 306 33801ft 440kts
12-May-20 09:00 45.797152 -119.105249 306 33797ft 442kts
12-May-20 09:01 45.877547 -119.241606 307 33791ft 443kts
12-May-20 09:02 45.957964 -119.378580 307 33784ft 444kts
12-May-20 09:03 46.038354 -119.516260 308 33792ft 448kts
12-May-20 09:04 46.118545 -119.654209 307 33787ft 447kts
12-May-20 09:05 46.198914 -119.793195 307 33788ft 447kts
12-May-20 09:06 46.278820 -119.932086 307 33788ft 447kts
12-May-20 09:07 46.358893 -120.071998 307 33792ft 447kts
12-May-20 09:08 46.439028 -120.212716 307 33795ft 448kts
12-May-20 09:09 46.519469 -120.354639 308 32816ft 450kts
12-May-20 09:10 46.597150 -120.500124 303 31798ft 454kts
12-May-20 09:11 46.669233 -120.651789 303 30001ft 443kts
12-May-20 09:12 46.738736 -120.798163 303 28147ft 431kts
12-May-20 09:13 46.806480 -120.941531 303 26334ft 415kts
12-May-20 09:13 46.861367 -121.058266 304 24632ft 407kts
12-May-20 09:15 46.934951 -121.215529 304 22595ft 389kts
12-May-20 09:16 46.995757 -121.346172 303 20946ft 380kts
12-May-20 09:16 47.045433 -121.453357 303 19580ft 371kts
12-May-20 09:17 47.102969 -121.578041 303 17900ft 363kts
12-May-20 09:18 47.158262 -121.698403 302 16441ft 348kts
12-May-20 09:20 47.218269 -121.829583 302 14710ft 313kts
12-May-20 09:20 47.258368 -121.917710 301 13895ft 307kts
12-May-20 09:21 47.305742 -122.022062 301 12890ft 304kts
12-May-20 09:22 47.352365 -122.125118 301 11992ft 296kts
12-May-20 09:23 47.416091 -122.194862 357 12022ft 309kts
12-May-20 09:24 47.501685 -122.195925 358 10665ft 303kts
12-May-20 09:25 47.585089 -122.197296 358 8528ft 293kts
12-May-20 09:26 47.664144 -122.198635 358 6511ft 275kts
12-May-20 09:27 47.738861 -122.200538 347 5125ft 255kts
12-May-20 09:28 47.757955 -122.279411 228 4165ft 236kts
12-May-20 09:29 47.699810 -122.301393 185 3731ft 210kts
12-May-20 09:30 47.644906 -122.306274 179 3276ft 195kts
12-May-20 09:31 47.592143 -122.306683 179 2937ft 186kts
12-May-20 09:32 47.542076 -122.307111 179 1986ft 163kts
12-May-20 09:33 47.499922 -122.307477 180 1187ft 149kts
12-May-20 09:34 47.458083 -122.307821 180 438ft 143kts
12-May-20 09:35 47.443508 -122.307283 92 393ft 8kts
12-May-20 09:36 47.444729 -122.306318 0 398ft 9kts
12-May-20 09:37 47.448278 -122.306281 0 411ft 16kts
12-May-20 09:38 47.453309 -122.305006 0 434ft 20kts
12-May-20 09:39 47.459704 -122.304953 0 446ft 21kts
12-May-20 09:40 47.461759 -122.302794 90 450ft 4kts
12-May-20 09:41 47.461842 -122.301281 36 454ft 1kts
12-May-20 09:42 47.462637 -122.301221 0 452ft 0kts

Navigation Log

Ident Type
Flight plan parsing failed, navigation log unavailable